createdAt,value
2023-01-19T00:01:29.979Z,5.35
2023-01-19T00:03:57.277Z,5.60
2023-01-19T00:06:24.728Z,6.38
2023-01-19T00:08:52.133Z,5.57
2023-01-19T00:11:20.124Z,5.80
2023-01-19T00:13:51.636Z,5.10
2023-01-19T00:16:21.794Z,6.35
2023-01-19T00:18:51.663Z,5.90
2023-01-19T00:21:19.760Z,5.50
2023-01-19T00:23:47.809Z,5.95
2023-01-19T00:26:16.575Z,5.45
2023-01-19T00:28:44.623Z,5.45
2023-01-19T00:31:12.517Z,5.88
2023-01-19T00:33:39.879Z,5.72
2023-01-19T00:36:09.134Z,5.78
2023-01-19T00:38:36.468Z,5.22
2023-01-19T00:41:03.705Z,6.13
2023-01-19T00:43:30.930Z,6.60
2023-01-19T00:45:58.331Z,6.68
2023-01-19T00:48:25.675Z,6.28
2023-01-19T00:50:52.959Z,7.15
2023-01-19T00:53:20.310Z,7.53
2023-01-19T00:55:47.828Z,7.40
2023-01-19T00:58:15.290Z,7.32
2023-01-19T01:00:42.936Z,6.97
2023-01-19T01:03:10.421Z,7.30
2023-01-19T01:05:41.843Z,7.57
2023-01-19T01:08:09.127Z,7.10
2023-01-19T01:10:36.464Z,7.40
2023-01-19T01:13:20.313Z,7.80
2023-01-19T01:15:53.175Z,8.43
2023-01-19T01:18:21.657Z,9.32
2023-01-19T01:20:49.072Z,10.02
2023-01-19T01:23:16.513Z,9.88
2023-01-19T01:25:43.933Z,9.73
2023-01-19T01:28:11.348Z,9.55
2023-01-19T01:30:41.102Z,9.35
2023-01-19T01:33:08.496Z,9.55
2023-01-19T01:35:35.876Z,8.35
2023-01-19T01:38:03.904Z,8.35
2023-01-19T01:40:31.388Z,8.07
2023-01-19T01:42:59.145Z,7.85
2023-01-19T01:45:38.410Z,8.07
2023-01-19T01:48:05.848Z,7.07
2023-01-19T01:50:35.669Z,7.97
2023-01-19T01:53:08.408Z,7.75
2023-01-19T01:55:45.479Z,6.65
2023-01-19T01:58:15.447Z,6.93
2023-01-19T02:01:01.653Z,6.53
2023-01-19T02:03:29.751Z,6.40
2023-01-19T02:06:01.892Z,6.40
2023-01-19T02:09:00.965Z,9.88
2023-01-19T02:11:48.523Z,8.43
2023-01-19T02:14:16.314Z,6.43
2023-01-19T02:16:43.927Z,5.97
2023-01-19T02:19:18.173Z,5.88
2023-01-19T02:21:58.665Z,5.45
2023-01-19T02:24:29.613Z,5.40
2023-01-19T02:26:58.051Z,5.45
2023-01-19T02:29:26.694Z,5.47
2023-01-19T02:31:55.758Z,5.68
2023-01-19T02:34:23.332Z,5.70
2023-01-19T02:36:52.758Z,6.15
2023-01-19T02:39:28.161Z,5.97
2023-01-19T02:42:01.474Z,5.85
2023-01-19T02:44:30.706Z,5.68
2023-01-19T02:46:58.025Z,5.82
2023-01-19T02:49:28.624Z,6.15
2023-01-19T02:51:56.810Z,6.18
2023-01-19T02:54:35.921Z,6.47
2023-01-19T02:57:12.401Z,6.03
2023-01-19T03:00:13.628Z,5.95
2023-01-19T03:02:59.174Z,6.32
2023-01-19T03:05:51.395Z,6.45
2023-01-19T03:08:42.294Z,6.45
2023-01-19T03:11:12.711Z,6.25
2023-01-19T03:13:45.956Z,6.53
2023-01-19T03:16:13.450Z,7.05
2023-01-19T03:18:46.149Z,7.63
2023-01-19T03:21:15.121Z,7.40
2023-01-19T03:23:46.250Z,7.17
2023-01-19T03:26:18.487Z,9.13
2023-01-19T03:28:47.502Z,9.13
2023-01-19T03:31:22.669Z,10.68
2023-01-19T03:34:22.958Z,12.52
2023-01-19T03:36:54.138Z,13.40
2023-01-19T03:39:28.733Z,13.40
2023-01-19T03:42:03.137Z,13.68
2023-01-19T03:44:33.278Z,15.77
2023-01-19T03:47:01.097Z,17.10
2023-01-19T03:49:31.553Z,16.88
2023-01-19T03:51:59.567Z,17.58
2023-01-19T03:54:27.532Z,15.75
2023-01-19T03:56:54.860Z,15.25
2023-01-19T03:59:22.380Z,14.85
2023-01-19T04:01:49.847Z,14.35
2023-01-19T04:04:17.363Z,16.15
2023-01-19T04:06:44.790Z,14.23
2023-01-19T04:09:12.081Z,17.33
2023-01-19T04:11:39.491Z,17.50
2023-01-19T04:14:06.813Z,17.27
2023-01-19T04:16:34.217Z,25.60
2023-01-19T04:19:01.864Z,31.60
2023-01-19T04:21:29.249Z,17.00
2023-01-19T04:23:56.493Z,18.30
2023-01-19T04:26:24.097Z,17.35
2023-01-19T04:28:51.477Z,17.50
2023-01-19T04:31:19.447Z,17.25
2023-01-19T04:33:46.770Z,17.77
2023-01-19T04:36:14.026Z,19.17
2023-01-19T04:38:41.337Z,24.40
2023-01-19T04:41:08.657Z,24.67
2023-01-19T04:43:35.983Z,19.08
2023-01-19T04:46:05.812Z,20.23
2023-01-19T04:51:00.790Z,14.07
2023-01-19T04:53:30.901Z,15.07
2023-01-19T04:55:59.762Z,15.38
2023-01-19T04:58:27.395Z,15.52
2023-01-19T05:00:54.664Z,14.50
2023-01-19T05:03:21.908Z,13.65
2023-01-19T05:05:49.240Z,13.30
2023-01-19T05:08:16.570Z,14.43
2023-01-19T05:10:43.776Z,13.50
2023-01-19T05:13:11.024Z,13.50
2023-01-19T05:15:38.531Z,11.82
2023-01-19T05:18:05.973Z,12.77
2023-01-19T05:20:33.241Z,12.82
2023-01-19T05:23:01.202Z,12.57
2023-01-19T05:25:29.113Z,13.80
2023-01-19T05:27:56.344Z,15.18
2023-01-19T05:30:24.547Z,16.38
2023-01-19T05:32:52.532Z,16.33
2023-01-19T05:35:31.345Z,16.17
2023-01-19T05:38:03.212Z,13.35
2023-01-19T05:40:31.268Z,15.48
2023-01-19T05:43:01.636Z,14.38
2023-01-19T05:45:30.173Z,14.05
2023-01-19T05:47:57.606Z,12.55
2023-01-19T05:50:25.471Z,12.35
2023-01-19T05:52:53.612Z,10.77
2023-01-19T05:55:21.578Z,10.82
2023-01-19T05:57:48.879Z,11.43
2023-01-19T06:00:17.222Z,11.60
2023-01-19T06:02:44.977Z,12.32
2023-01-19T06:05:12.506Z,12.65
2023-01-19T06:07:39.897Z,12.73
2023-01-19T06:10:08.471Z,13.35
2023-01-19T06:12:35.909Z,13.57
2023-01-19T06:15:03.437Z,12.88
2023-01-19T06:17:32.533Z,13.88
2023-01-19T06:19:59.738Z,15.00
2023-01-19T06:22:27.112Z,13.48
2023-01-19T06:24:54.601Z,14.02
2023-01-19T06:27:21.991Z,11.45
2023-01-19T06:29:49.257Z,11.82
2023-01-19T06:32:17.519Z,13.27
2023-01-19T06:34:44.964Z,13.85
2023-01-19T06:37:12.358Z,13.07
2023-01-19T06:39:41.282Z,12.02
2023-01-19T06:42:09.232Z,11.60
2023-01-19T06:44:37.109Z,10.23
2023-01-19T06:47:15.751Z,10.63
2023-01-19T06:49:44.167Z,10.80
2023-01-19T06:52:14.276Z,10.60
2023-01-19T06:54:43.395Z,10.10
2023-01-19T06:57:14.041Z,10.93
2023-01-19T06:59:42.182Z,10.52
2023-01-19T07:02:27.770Z,11.10
2023-01-19T07:04:56.978Z,15.77
2023-01-19T07:07:24.634Z,13.77
2023-01-19T07:09:54.095Z,17.27
2023-01-19T07:12:22.600Z,16.77
2023-01-19T07:14:50.465Z,11.48
2023-01-19T07:17:18.288Z,10.15
2023-01-19T07:19:46.764Z,9.85
2023-01-19T07:22:14.332Z,9.57
2023-01-19T07:24:41.820Z,9.75
2023-01-19T07:27:11.567Z,9.23
2023-01-19T07:29:40.038Z,9.10
2023-01-19T07:32:07.629Z,7.95
2023-01-19T07:34:36.030Z,9.25
2023-01-19T07:37:04.446Z,36.20
2023-01-19T07:39:32.174Z,24.08
2023-01-19T07:41:59.863Z,8.93
2023-01-19T07:44:27.268Z,7.00
2023-01-19T07:46:54.694Z,6.50
2023-01-19T07:49:22.089Z,6.28
2023-01-19T07:51:49.778Z,5.90
2023-01-19T07:54:17.075Z,5.38
2023-01-19T07:56:44.444Z,5.18
2023-01-19T07:59:12.140Z,4.28
2023-01-19T08:01:39.738Z,4.80
2023-01-19T08:04:07.245Z,5.10
2023-01-19T08:06:37.440Z,5.05
2023-01-19T08:09:05.794Z,15.90
2023-01-19T08:11:33.744Z,4.78
2023-01-19T08:14:01.114Z,4.35
2023-01-19T08:16:28.485Z,4.50
2023-01-19T08:18:56.298Z,4.38
2023-01-19T08:21:23.868Z,5.00
2023-01-19T08:23:55.615Z,8.27
2023-01-19T08:26:29.919Z,8.15
2023-01-19T08:29:00.029Z,26.90
2023-01-19T08:31:27.620Z,5.47
2023-01-19T08:33:55.275Z,5.68
2023-01-19T08:36:23.892Z,5.05
2023-01-19T08:38:52.673Z,4.38
2023-01-19T08:41:20.288Z,4.20
2023-01-19T08:43:48.225Z,4.40
2023-01-19T08:46:21.818Z,4.15
2023-01-19T08:48:50.427Z,4.20
2023-01-19T08:51:18.562Z,4.47
2023-01-19T08:53:45.968Z,6.53
2023-01-19T08:56:13.882Z,6.75
2023-01-19T08:58:42.359Z,4.55
2023-01-19T09:01:14.897Z,4.65
2023-01-19T09:03:42.748Z,7.10
2023-01-19T09:06:14.651Z,4.47
2023-01-19T09:08:42.001Z,4.32
2023-01-19T09:11:13.705Z,4.10
2023-01-19T09:13:41.694Z,4.93
2023-01-19T09:16:11.526Z,24.13
2023-01-19T09:18:39.424Z,14.38
2023-01-19T09:21:06.839Z,16.15
2023-01-19T09:23:34.220Z,13.57
2023-01-19T09:26:03.478Z,5.53
2023-01-19T09:28:30.991Z,7.00
2023-01-19T09:30:58.405Z,6.35
2023-01-19T09:33:25.849Z,8.05
2023-01-19T09:35:53.143Z,4.88
2023-01-19T09:38:20.928Z,7.68
2023-01-19T09:40:54.469Z,3.70
2023-01-19T09:43:30.998Z,3.50
2023-01-19T09:46:04.166Z,3.95
2023-01-19T09:48:34.530Z,3.70
2023-01-19T09:51:08.613Z,4.95
2023-01-19T09:53:55.588Z,5.70
2023-01-19T09:56:23.918Z,5.75
2023-01-19T09:58:52.223Z,6.38
2023-01-19T10:01:28.692Z,6.03
2023-01-19T10:04:17.346Z,7.70
2023-01-19T10:06:46.745Z,6.43
2023-01-19T10:09:32.036Z,6.80
2023-01-19T10:12:35.748Z,7.25
2023-01-19T10:15:20.847Z,5.72
2023-01-19T10:18:09.518Z,6.50
2023-01-19T10:20:41.776Z,6.18
2023-01-19T10:23:25.089Z,5.93
2023-01-19T10:25:52.510Z,5.53
2023-01-19T10:28:25.536Z,5.03
2023-01-19T10:30:55.904Z,6.03
2023-01-19T10:33:23.336Z,7.20
2023-01-19T10:35:50.763Z,6.72
2023-01-19T10:38:22.324Z,7.00
2023-01-19T10:40:59.745Z,6.97
2023-01-19T10:43:44.294Z,6.82
2023-01-19T10:46:17.800Z,7.18
2023-01-19T10:48:48.943Z,6.78
2023-01-19T10:51:16.582Z,7.05
2023-01-19T10:54:02.198Z,6.45
2023-01-19T10:56:37.304Z,4.72
2023-01-19T10:59:07.030Z,4.90
2023-01-19T11:01:37.303Z,5.40
2023-01-19T11:04:28.623Z,7.85
2023-01-19T11:07:23.021Z,7.90
2023-01-19T11:10:10.678Z,8.88
2023-01-19T11:13:02.816Z,9.60
2023-01-19T11:15:44.057Z,7.10
2023-01-19T11:18:33.899Z,6.07
2023-01-19T11:21:06.447Z,4.82
2023-01-19T11:23:42.096Z,3.50
2023-01-19T11:26:16.375Z,2.40
2023-01-19T11:28:48.727Z,4.03
2023-01-19T11:31:16.078Z,3.30
2023-01-19T11:33:50.567Z,2.58
2023-01-19T11:36:21.349Z,3.05
2023-01-19T11:38:51.826Z,13.23
2023-01-19T11:41:26.091Z,16.38
2023-01-19T11:43:55.977Z,6.20
2023-01-19T11:46:27.365Z,3.17
2023-01-19T11:49:20.035Z,3.13
2023-01-19T11:51:53.334Z,6.60
2023-01-19T11:54:27.380Z,3.92
2023-01-19T11:56:58.673Z,4.95
2023-01-19T11:59:26.221Z,6.97
2023-01-19T12:01:57.976Z,5.85
2023-01-19T12:04:32.845Z,4.85
2023-01-19T12:07:07.747Z,6.63
2023-01-19T12:09:42.794Z,6.35
2023-01-19T12:12:31.149Z,8.27
2023-01-19T12:15:26.454Z,17.92
2023-01-19T12:17:58.695Z,7.97
2023-01-19T12:20:36.668Z,5.60
2023-01-19T12:23:25.418Z,5.88
2023-01-19T12:26:21.972Z,7.47
2023-01-19T12:28:51.201Z,6.50
2023-01-19T12:31:23.243Z,6.28
2023-01-19T12:33:51.529Z,7.80
2023-01-19T12:36:27.849Z,7.78
2023-01-19T12:39:19.215Z,11.80
2023-01-19T12:41:47.539Z,7.65
2023-01-19T12:44:21.330Z,22.35
2023-01-19T12:47:07.643Z,13.43
2023-01-19T12:49:40.491Z,10.55
2023-01-19T12:52:25.436Z,13.18
2023-01-19T12:55:13.534Z,7.90
2023-01-19T12:58:02.213Z,9.65
2023-01-19T13:00:33.725Z,14.55
2023-01-19T13:03:03.942Z,9.15
2023-01-19T13:05:32.824Z,12.32
2023-01-19T13:08:07.199Z,11.80
2023-01-19T13:10:53.294Z,14.60
2023-01-19T13:13:24.747Z,12.55
2023-01-19T13:15:55.602Z,13.40
2023-01-19T13:18:39.123Z,14.38
2023-01-19T13:21:09.038Z,15.68
2023-01-19T13:26:33.086Z,20.95
2023-01-19T13:29:08.789Z,12.00
2023-01-19T13:31:38.412Z,16.33
2023-01-19T13:34:17.150Z,17.52
2023-01-19T13:36:47.227Z,9.40
2023-01-19T13:39:28.893Z,16.45
2023-01-19T13:42:01.513Z,8.88
2023-01-19T13:44:42.344Z,15.93
2023-01-19T13:47:19.156Z,14.32
2023-01-19T13:49:48.567Z,15.55
2023-01-19T13:52:25.629Z,11.32
2023-01-19T13:54:55.100Z,13.40
2023-01-19T13:57:25.022Z,12.43
2023-01-19T14:02:28.794Z,11.27
2023-01-19T14:04:57.304Z,12.90
2023-01-19T14:07:26.589Z,11.15
2023-01-19T14:10:06.131Z,9.65
2023-01-19T14:12:33.636Z,12.30
2023-01-19T14:15:01.003Z,10.50
2023-01-19T14:17:30.414Z,10.60
2023-01-19T14:20:01.000Z,14.25
2023-01-19T14:22:42.580Z,13.68
2023-01-19T14:25:34.268Z,13.63
2023-01-19T14:28:30.441Z,14.32
2023-01-19T14:31:00.700Z,12.85
2023-01-19T14:33:41.946Z,13.55
2023-01-19T14:36:11.667Z,16.10
2023-01-19T14:38:50.596Z,14.15
2023-01-19T14:41:37.055Z,13.30
2023-01-19T14:44:10.027Z,11.45
2023-01-19T14:46:38.499Z,9.70
2023-01-19T14:49:06.787Z,12.88
2023-01-19T14:51:34.227Z,8.50
2023-01-19T14:54:02.947Z,8.02
2023-01-19T14:56:32.400Z,9.63
2023-01-19T14:59:02.508Z,9.30
2023-01-19T15:01:31.294Z,9.23
2023-01-19T15:03:58.901Z,8.73
2023-01-19T15:06:26.887Z,6.15
2023-01-19T15:08:54.726Z,7.97
2023-01-19T15:11:33.865Z,12.45
2023-01-19T15:14:02.032Z,12.95
2023-01-19T15:16:33.797Z,13.00
2023-01-19T15:19:01.253Z,10.55
2023-01-19T15:21:28.711Z,14.73
2023-01-19T15:23:56.355Z,13.20
2023-01-19T15:26:26.344Z,10.75
2023-01-19T15:28:56.329Z,11.85
2023-01-19T15:33:51.368Z,13.63
2023-01-19T15:36:21.127Z,10.93
2023-01-19T15:38:51.152Z,11.23
2023-01-19T15:41:25.965Z,12.15
2023-01-19T15:43:55.167Z,9.80
2023-01-19T15:46:23.823Z,9.98
2023-01-19T15:48:51.916Z,12.80
2023-01-19T15:51:21.774Z,14.68
2023-01-19T15:56:23.512Z,12.57
2023-01-19T15:58:51.793Z,13.25
2023-01-19T16:01:22.051Z,13.25
2023-01-19T16:03:50.899Z,13.57
2023-01-19T16:06:21.511Z,12.32
2023-01-19T16:08:48.761Z,13.75
2023-01-19T16:11:18.503Z,12.80
2023-01-19T16:13:46.397Z,13.05
2023-01-19T16:16:19.667Z,9.85
2023-01-19T16:18:47.214Z,12.63
2023-01-19T16:21:18.208Z,14.35
2023-01-19T16:23:45.961Z,13.98
2023-01-19T16:26:43.647Z,12.15
2023-01-19T16:29:11.053Z,13.65
2023-01-19T16:31:39.812Z,12.95
2023-01-19T16:34:09.393Z,12.40
2023-01-19T16:36:41.159Z,13.65
2023-01-19T16:39:13.676Z,13.35
2023-01-19T16:41:41.542Z,14.73
2023-01-19T16:44:10.640Z,15.43
2023-01-19T16:46:40.951Z,12.40
2023-01-19T16:49:15.826Z,13.85
2023-01-19T16:51:44.417Z,14.63
2023-01-19T16:54:14.513Z,12.55
2023-01-19T16:56:44.035Z,13.05
2023-01-19T16:59:12.853Z,13.07
2023-01-19T17:01:46.051Z,12.88
2023-01-19T17:04:14.954Z,11.43
2023-01-19T17:06:42.462Z,12.93
2023-01-19T17:09:10.368Z,12.73
2023-01-19T17:11:40.283Z,12.85
2023-01-19T17:16:39.006Z,12.25
2023-01-19T17:19:07.897Z,12.30
2023-01-19T17:21:35.645Z,10.98
2023-01-19T17:24:03.191Z,12.00
2023-01-19T17:26:31.325Z,9.45
2023-01-19T17:29:00.487Z,10.70
2023-01-19T17:31:28.929Z,11.77
2023-01-19T17:33:56.502Z,10.05
2023-01-19T17:36:25.509Z,11.80
2023-01-19T17:38:54.469Z,10.70
2023-01-19T17:41:24.653Z,11.98
2023-01-19T17:43:52.304Z,12.35
2023-01-19T17:46:21.789Z,10.70
2023-01-19T17:48:56.667Z,11.77
2023-01-19T17:51:24.798Z,9.75
2023-01-19T17:53:53.126Z,11.85
2023-01-19T17:56:27.611Z,12.02
2023-01-19T17:58:58.622Z,12.57
2023-01-19T18:01:31.615Z,12.18
2023-01-19T18:03:59.752Z,13.85
2023-01-19T18:06:27.015Z,12.88
2023-01-19T18:08:54.326Z,12.80
2023-01-19T18:11:21.824Z,12.23
2023-01-19T18:13:50.725Z,12.20
2023-01-19T18:16:29.109Z,11.60
2023-01-19T18:18:57.628Z,12.50
2023-01-19T18:21:29.091Z,9.60
2023-01-19T18:24:04.205Z,11.43
2023-01-19T18:26:33.560Z,12.05
2023-01-19T18:29:01.429Z,11.75
2023-01-19T18:31:29.002Z,12.32
2023-01-19T18:33:56.445Z,12.95
2023-01-19T18:36:23.850Z,12.05
2023-01-19T18:38:52.476Z,12.95
2023-01-19T18:41:21.548Z,12.23
2023-01-19T18:43:49.327Z,12.53
2023-01-19T18:46:17.002Z,12.63
2023-01-19T18:48:44.706Z,11.43
2023-01-19T18:51:14.385Z,11.85
2023-01-19T18:53:42.470Z,15.70
2023-01-19T18:56:12.950Z,13.95
2023-01-19T18:58:40.538Z,12.48
2023-01-19T19:01:27.921Z,12.88
2023-01-19T19:03:56.820Z,12.23
2023-01-19T19:06:39.251Z,11.63
2023-01-19T19:09:06.683Z,11.40
2023-01-19T19:11:34.553Z,12.02
2023-01-19T19:14:04.156Z,12.25
2023-01-19T19:16:34.705Z,12.77
2023-01-19T19:19:02.718Z,12.48
2023-01-19T19:21:29.944Z,11.95
2023-01-19T19:23:58.539Z,11.65
2023-01-19T19:26:28.203Z,12.23
2023-01-19T19:28:55.641Z,11.73
2023-01-19T19:31:25.997Z,12.63
2023-01-19T19:33:55.158Z,14.65
2023-01-19T19:36:24.113Z,13.23
2023-01-19T19:38:52.058Z,12.02
2023-01-19T19:41:22.528Z,11.65
2023-01-19T19:43:50.138Z,13.15
2023-01-19T19:46:20.168Z,11.95
2023-01-19T19:48:48.880Z,11.73
2023-01-19T19:51:22.509Z,11.27
2023-01-19T19:53:51.825Z,12.00
2023-01-19T19:56:23.015Z,12.40
2023-01-19T19:58:51.824Z,14.48
2023-01-19T20:01:23.043Z,15.82
2023-01-19T20:03:52.136Z,14.35
2023-01-19T20:06:22.312Z,11.77
2023-01-19T20:08:51.987Z,13.10
2023-01-19T20:11:22.542Z,13.35
2023-01-19T20:13:50.810Z,12.73
2023-01-19T20:16:20.892Z,13.90
2023-01-19T20:18:54.307Z,13.55
2023-01-19T20:21:29.805Z,12.90
2023-01-19T20:24:00.759Z,12.07
2023-01-19T20:26:31.789Z,12.68
2023-01-19T20:29:02.933Z,12.32
2023-01-19T20:31:33.143Z,11.75
2023-01-19T20:34:05.068Z,11.38
2023-01-19T20:36:33.167Z,11.43
2023-01-19T20:39:01.412Z,11.80
2023-01-19T20:41:28.710Z,12.43
2023-01-19T20:43:56.107Z,11.40
2023-01-19T20:46:23.385Z,12.48
2023-01-19T20:48:53.049Z,11.25
2023-01-19T20:51:21.115Z,11.13
2023-01-19T20:53:48.730Z,11.43
2023-01-19T20:56:16.398Z,11.65
2023-01-19T20:58:43.823Z,11.30
2023-01-19T21:01:14.583Z,12.02
2023-01-19T21:03:42.818Z,11.93
2023-01-19T21:06:10.784Z,11.35
2023-01-19T21:08:38.527Z,12.52
2023-01-19T21:11:07.122Z,11.68
2023-01-19T21:13:35.468Z,10.63
2023-01-19T21:16:05.014Z,11.25
2023-01-19T21:18:33.395Z,12.88
2023-01-19T21:21:00.952Z,10.40
2023-01-19T21:23:28.835Z,9.68
2023-01-19T21:25:59.667Z,9.30
2023-01-19T21:28:28.849Z,9.88
2023-01-19T21:30:57.609Z,9.23
2023-01-19T21:33:25.262Z,10.93
2023-01-19T21:35:57.263Z,10.30
2023-01-19T21:38:30.196Z,10.75
2023-01-19T21:40:58.417Z,12.05
2023-01-19T21:43:26.730Z,11.63
2023-01-19T21:45:54.105Z,10.30
2023-01-19T21:48:22.081Z,10.95
2023-01-19T21:50:58.564Z,11.13
2023-01-19T21:53:25.897Z,10.07
2023-01-19T21:55:53.267Z,10.45
2023-01-19T21:58:23.821Z,10.77
2023-01-19T22:00:58.483Z,10.95
2023-01-19T22:03:27.420Z,11.30
2023-01-19T22:05:56.053Z,10.50
2023-01-19T22:08:24.478Z,10.80
2023-01-19T22:10:51.763Z,9.57
2023-01-19T22:13:19.425Z,10.55
2023-01-19T22:15:46.653Z,8.77
2023-01-19T22:18:13.978Z,10.15
2023-01-19T22:20:41.341Z,10.20
2023-01-19T22:23:08.629Z,10.98
2023-01-19T22:25:35.946Z,11.02
2023-01-19T22:28:03.268Z,11.50
2023-01-19T22:30:30.680Z,11.18
2023-01-19T22:33:00.159Z,11.18
2023-01-19T22:35:28.429Z,11.98
2023-01-19T22:37:55.707Z,12.30
2023-01-19T22:40:23.033Z,12.90
2023-01-19T22:42:50.416Z,10.95
2023-01-19T22:45:17.855Z,11.23
2023-01-19T22:47:46.475Z,12.45
2023-01-19T22:50:15.214Z,11.93
2023-01-19T22:52:42.587Z,12.10
2023-01-19T22:55:10.213Z,12.40
2023-01-19T22:57:38.355Z,12.40
2023-01-19T23:00:09.258Z,13.25
2023-01-19T23:02:37.740Z,12.18
2023-01-19T23:05:06.674Z,12.68
2023-01-19T23:07:34.085Z,12.60
2023-01-19T23:10:01.768Z,13.45
2023-01-19T23:12:33.353Z,13.77
2023-01-19T23:15:00.628Z,11.82
2023-01-19T23:17:29.722Z,11.05
2023-01-19T23:19:57.457Z,10.30
2023-01-19T23:22:25.708Z,10.48
2023-01-19T23:24:53.489Z,9.77
2023-01-19T23:27:20.821Z,9.65
2023-01-19T23:29:48.165Z,9.43
2023-01-19T23:32:15.416Z,10.82
2023-01-19T23:34:43.194Z,11.40
2023-01-19T23:37:11.655Z,10.57
2023-01-19T23:39:39.059Z,9.95
2023-01-19T23:42:09.203Z,10.45
2023-01-19T23:44:38.607Z,11.52
2023-01-19T23:47:05.914Z,10.80
2023-01-19T23:49:33.261Z,11.80
2023-01-19T23:52:00.535Z,11.32
2023-01-19T23:54:51.956Z,11.13
2023-01-19T23:57:19.675Z,11.55
2023-01-19T23:59:47.988Z,11.45
